createdAt,value
2023-04-13T00:00:16.677Z,98934.41
2023-04-13T00:02:45.382Z,98933.41
2023-04-13T00:05:13.730Z,98932.94
2023-04-13T00:07:41.058Z,98923.97
2023-04-13T00:10:09.911Z,98919.81
2023-04-13T00:12:37.844Z,98921.88
2023-04-13T00:15:05.791Z,98915.19
2023-04-13T00:17:37.984Z,98915.00
2023-04-13T00:20:11.797Z,98915.78
2023-04-13T00:22:40.264Z,98919.91
2023-04-13T00:25:07.570Z,98915.50
2023-04-13T00:27:35.197Z,98914.78
2023-04-13T00:30:02.711Z,98919.03
2023-04-13T00:32:29.929Z,98916.13
2023-04-13T00:34:57.196Z,98909.88
2023-04-13T00:37:24.624Z,98908.47
2023-04-13T00:39:53.877Z,98901.97
2023-04-13T00:42:22.222Z,98905.69
2023-04-13T00:44:49.781Z,98911.13
2023-04-13T00:47:17.645Z,98915.78
2023-04-13T00:49:45.082Z,98907.09
2023-04-13T00:52:13.519Z,98910.53
2023-04-13T00:54:40.702Z,98912.50
2023-04-13T00:57:07.897Z,98915.19
2023-04-13T00:59:35.575Z,98913.19
2023-04-13T01:02:05.474Z,98905.16
2023-04-13T01:04:33.768Z,98911.47
2023-04-13T01:07:08.662Z,98912.31
2023-04-13T01:09:41.194Z,98916.59
2023-04-13T01:12:12.403Z,98903.94
2023-04-13T01:14:45.735Z,98904.00
2023-04-13T01:17:15.459Z,98900.78
2023-04-13T01:19:47.311Z,98904.09
2023-04-13T01:22:15.817Z,98900.69
2023-04-13T01:24:53.694Z,98890.88
2023-04-13T01:27:30.105Z,98885.78
2023-04-13T01:29:58.289Z,98893.06
2023-04-13T01:32:25.761Z,98890.50
2023-04-13T01:34:52.970Z,98888.06
2023-04-13T01:37:20.712Z,98885.69
2023-04-13T01:39:49.519Z,98888.75
2023-04-13T01:42:17.501Z,98894.50
2023-04-13T01:44:45.870Z,98907.47
2023-04-13T01:47:16.348Z,98907.81
2023-04-13T01:49:46.369Z,98902.50
2023-04-13T01:52:14.269Z,98902.78
2023-04-13T01:54:41.509Z,98896.31
2023-04-13T01:57:12.361Z,98901.09
2023-04-13T01:59:40.741Z,98902.38
2023-04-13T02:02:16.858Z,98896.91
2023-04-13T02:04:44.525Z,98903.09
2023-04-13T02:07:12.518Z,98897.66
2023-04-13T02:09:40.498Z,98906.13
2023-04-13T02:12:07.914Z,98897.66
2023-04-13T02:14:38.893Z,98897.66
2023-04-13T02:17:06.082Z,98892.97
2023-04-13T02:19:34.667Z,98894.25
2023-04-13T02:22:03.243Z,98898.16
2023-04-13T02:24:30.396Z,98899.50
2023-04-13T02:26:58.077Z,98900.88
2023-04-13T02:29:25.473Z,98901.22
2023-04-13T02:31:52.677Z,98904.81
2023-04-13T02:34:19.904Z,98903.16
2023-04-13T02:36:47.300Z,98897.34
2023-04-13T02:39:14.703Z,98904.13
2023-04-13T02:41:43.285Z,98897.69
2023-04-13T02:44:13.725Z,98893.63
2023-04-13T02:46:41.602Z,98894.59
2023-04-13T02:49:09.260Z,98897.25
2023-04-13T02:51:37.155Z,98885.06
2023-04-13T02:54:05.136Z,98889.63
2023-04-13T02:56:35.897Z,98884.53
2023-04-13T02:59:03.940Z,98885.31
2023-04-13T03:01:31.646Z,98887.34
2023-04-13T03:03:59.089Z,98886.78
2023-04-13T03:06:27.066Z,98894.09
2023-04-13T03:08:55.104Z,98889.00
2023-04-13T03:11:23.598Z,98892.53
2023-04-13T03:13:54.263Z,98892.19
2023-04-13T03:16:21.753Z,98889.84
2023-04-13T03:18:49.601Z,98884.94
2023-04-13T03:21:17.261Z,98887.06
2023-04-13T03:23:44.755Z,98891.97
2023-04-13T03:26:12.142Z,98894.78
2023-04-13T03:28:40.157Z,98885.38
2023-04-13T03:31:08.341Z,98880.63
2023-04-13T03:33:36.148Z,98883.34
2023-04-13T03:36:03.853Z,98891.09
2023-04-13T03:38:31.954Z,98880.63
2023-04-13T03:40:59.265Z,98879.47
2023-04-13T03:43:27.288Z,98887.41
2023-04-13T03:45:57.465Z,98875.16
2023-04-13T03:48:24.639Z,98886.50
2023-04-13T03:50:52.297Z,98881.94
2023-04-13T03:53:20.964Z,98877.69
2023-04-13T03:55:48.703Z,98876.16
2023-04-13T03:58:16.278Z,98880.09
2023-04-13T04:00:43.634Z,98870.78
2023-04-13T04:03:11.815Z,98878.13
2023-04-13T04:05:40.448Z,98876.28
2023-04-13T04:08:07.759Z,98878.72
2023-04-13T04:10:35.825Z,98880.91
2023-04-13T04:13:02.989Z,98879.91
2023-04-13T04:15:30.908Z,98885.63
2023-04-13T04:17:59.272Z,98888.78
2023-04-13T04:20:26.510Z,98888.87
2023-04-13T04:22:54.005Z,98887.91
2023-04-13T04:25:27.499Z,98882.91
2023-04-13T04:27:57.783Z,98888.97
2023-04-13T04:30:29.931Z,98881.84
2023-04-13T04:32:59.068Z,98894.28
2023-04-13T04:35:34.608Z,98882.69
2023-04-13T04:38:04.468Z,98879.63
2023-04-13T04:40:35.741Z,98888.00
2023-04-13T04:43:04.763Z,98887.34
2023-04-13T04:45:36.308Z,98883.09
2023-04-13T04:48:04.261Z,98889.84
2023-04-13T04:50:33.374Z,98893.22
2023-04-13T04:53:01.110Z,98891.44
2023-04-13T04:55:28.884Z,98894.09
2023-04-13T04:57:56.556Z,98896.16
2023-04-13T05:00:26.430Z,98895.34
2023-04-13T05:02:57.855Z,98890.38
2023-04-13T05:05:25.655Z,98883.47
2023-04-13T05:07:53.152Z,98879.16
2023-04-13T05:10:20.677Z,98879.00
2023-04-13T05:12:50.961Z,98888.91
2023-04-13T05:15:18.176Z,98883.97
2023-04-13T05:17:46.789Z,98884.34
2023-04-13T05:20:14.762Z,98888.28
2023-04-13T05:22:42.636Z,98891.41
2023-04-13T05:25:10.839Z,98898.22
2023-04-13T05:27:38.334Z,98899.28
2023-04-13T05:30:06.243Z,98905.28
2023-04-13T05:32:34.852Z,98909.09
2023-04-13T05:35:02.563Z,98901.03
2023-04-13T05:37:30.644Z,98899.22
2023-04-13T05:39:58.598Z,98899.84
2023-04-13T05:42:27.536Z,98899.12
2023-04-13T05:44:55.364Z,98906.00
2023-04-13T05:47:24.069Z,98899.59
2023-04-13T05:49:52.566Z,98898.81
2023-04-13T05:52:21.995Z,98903.47
2023-04-13T05:54:50.230Z,98900.53
2023-04-13T05:57:20.933Z,98899.22
2023-04-13T05:59:48.479Z,98895.91
2023-04-13T06:02:19.003Z,98896.56
2023-04-13T06:04:46.568Z,98890.25
2023-04-13T06:07:16.509Z,98899.28
2023-04-13T06:09:43.663Z,98894.44
2023-04-13T06:12:11.174Z,98900.50
2023-04-13T06:14:38.582Z,98894.00
2023-04-13T06:17:05.843Z,98891.66
2023-04-13T06:19:33.450Z,98884.12
2023-04-13T06:22:00.943Z,98886.53
2023-04-13T06:24:30.557Z,98895.28
2023-04-13T06:26:58.405Z,98899.59
2023-04-13T06:29:26.635Z,98900.91
2023-04-13T06:31:54.611Z,98902.87
2023-04-13T06:34:22.156Z,98897.94
2023-04-13T06:36:49.355Z,98901.00
2023-04-13T06:39:17.505Z,98909.19
2023-04-13T06:41:46.261Z,98918.56
2023-04-13T06:44:13.767Z,98911.19
2023-04-13T06:46:42.475Z,98913.69
2023-04-13T06:49:12.071Z,98911.22
2023-04-13T06:51:39.710Z,98915.69
2023-04-13T06:54:07.713Z,98917.75
2023-04-13T06:56:37.313Z,98911.84
2023-04-13T06:59:05.128Z,98910.87
2023-04-13T07:01:32.874Z,98911.87
2023-04-13T07:04:02.556Z,98914.78
2023-04-13T07:06:32.347Z,98907.72
2023-04-13T07:08:59.835Z,98912.19
2023-04-13T07:11:27.809Z,98916.72
2023-04-13T07:13:54.988Z,98927.81
2023-04-13T07:16:24.600Z,98925.28
2023-04-13T07:18:52.222Z,98923.59
2023-04-13T07:21:19.381Z,98924.94
2023-04-13T07:23:47.436Z,98928.06
2023-04-13T07:26:15.463Z,98928.00
2023-04-13T07:28:43.772Z,98925.84
2023-04-13T07:31:11.873Z,98925.97
2023-04-13T07:33:40.130Z,98924.56
2023-04-13T07:36:08.701Z,98928.94
2023-04-13T07:38:37.364Z,98924.03
2023-04-13T07:41:05.416Z,98927.37
2023-04-13T07:43:35.045Z,98933.22
2023-04-13T07:46:11.885Z,98931.06
2023-04-13T07:48:43.905Z,98930.09
2023-04-13T07:51:17.392Z,98926.91
2023-04-13T07:53:45.781Z,98938.56
2023-04-13T07:56:14.187Z,98937.75
2023-04-13T07:58:41.949Z,98935.66
2023-04-13T08:01:09.622Z,98936.69
2023-04-13T08:03:37.423Z,98927.66
2023-04-13T08:06:09.486Z,98939.56
2023-04-13T08:08:37.587Z,98929.03
2023-04-13T08:11:05.012Z,98927.88
2023-04-13T08:13:34.006Z,98934.13
2023-04-13T08:16:01.578Z,98928.81
2023-04-13T08:18:29.851Z,98936.22
2023-04-13T08:20:57.129Z,98928.22
2023-04-13T08:23:25.507Z,98926.66
2023-04-13T08:25:52.708Z,98924.38
2023-04-13T08:28:20.622Z,98925.78
2023-04-13T08:30:48.330Z,98924.31
2023-04-13T08:33:15.648Z,98933.13
2023-04-13T08:35:42.854Z,98933.16
2023-04-13T08:38:10.611Z,98923.34
2023-04-13T08:40:39.563Z,98920.03
2023-04-13T08:43:07.817Z,98918.81
2023-04-13T08:45:35.428Z,98923.22
2023-04-13T08:48:03.137Z,98916.44
2023-04-13T08:50:31.590Z,98919.72
2023-04-13T08:53:00.043Z,98910.28
2023-04-13T08:55:27.213Z,98910.03
2023-04-13T08:57:54.705Z,98911.94
2023-04-13T09:00:23.849Z,98906.72
2023-04-13T09:03:04.859Z,98902.41
2023-04-13T09:05:34.546Z,98905.91
2023-04-13T09:08:04.713Z,98905.06
2023-04-13T09:10:32.201Z,98905.09
2023-04-13T09:13:00.065Z,98902.69
2023-04-13T09:15:27.578Z,98905.84
2023-04-13T09:17:55.747Z,98902.44
2023-04-13T09:20:23.597Z,98895.84
2023-04-13T09:22:51.615Z,98906.38
2023-04-13T09:25:25.747Z,98903.63
2023-04-13T09:27:53.481Z,98899.53
2023-04-13T09:30:24.676Z,98908.69
2023-04-13T09:33:07.851Z,98912.53
2023-04-13T09:35:36.151Z,98899.31
2023-04-13T09:38:05.070Z,98894.53
2023-04-13T09:40:32.424Z,98894.50
2023-04-13T09:43:04.669Z,98894.44
2023-04-13T09:45:35.743Z,98903.22
2023-04-13T09:48:04.205Z,98902.50
2023-04-13T09:50:33.831Z,98904.97
2023-04-13T09:53:02.089Z,98903.37
2023-04-13T09:55:29.858Z,98901.41
2023-04-13T09:57:57.171Z,98894.81
2023-04-13T10:00:25.294Z,98889.09
2023-04-13T10:02:53.287Z,98896.25
2023-04-13T10:05:20.886Z,98887.66
2023-04-13T10:07:48.564Z,98892.88
2023-04-13T10:10:17.010Z,98900.75
2023-04-13T10:12:46.310Z,98897.63
2023-04-13T10:15:24.822Z,98900.94
2023-04-13T10:17:55.427Z,98900.66
2023-04-13T10:20:22.672Z,98893.38
2023-04-13T10:22:49.823Z,98902.41
2023-04-13T10:25:32.087Z,98900.22
2023-04-13T10:28:00.262Z,98904.72
2023-04-13T10:30:28.250Z,98896.63
2023-04-13T10:33:06.299Z,98897.66
2023-04-13T10:35:34.834Z,98897.50
2023-04-13T10:38:02.169Z,98896.06
2023-04-13T10:40:29.376Z,98894.44
2023-04-13T10:42:56.845Z,98897.78
2023-04-13T10:45:26.278Z,98903.28
2023-04-13T10:47:54.473Z,98902.81
2023-04-13T10:50:23.225Z,98889.53
2023-04-13T10:53:04.944Z,98890.38
2023-04-13T10:55:33.127Z,98889.09
2023-04-13T10:58:01.194Z,98875.41
2023-04-13T11:00:44.547Z,98877.16
2023-04-13T11:03:17.211Z,98878.75
2023-04-13T11:05:46.168Z,98867.53
2023-04-13T11:08:18.987Z,98863.94
2023-04-13T11:10:53.041Z,98878.84
2023-04-13T11:13:20.985Z,98880.66
2023-04-13T11:15:49.417Z,98867.41
2023-04-13T11:18:24.443Z,98863.03
2023-04-13T11:20:52.052Z,98863.88
2023-04-13T11:23:20.083Z,98867.56
2023-04-13T11:25:52.472Z,98859.63
2023-04-13T11:28:20.153Z,98855.28
2023-04-13T11:30:56.555Z,98857.06
2023-04-13T11:33:24.981Z,98851.81
2023-04-13T11:35:53.144Z,98858.78
2023-04-13T11:38:23.271Z,98853.56
2023-04-13T11:40:56.788Z,98842.19
2023-04-13T11:43:28.982Z,98841.16
2023-04-13T11:45:56.597Z,98850.53
2023-04-13T11:48:24.185Z,98841.25
2023-04-13T11:50:51.387Z,98843.97
2023-04-13T11:53:18.812Z,98842.25
2023-04-13T11:55:53.225Z,98832.59
2023-04-13T11:58:21.371Z,98841.72
2023-04-13T12:00:49.077Z,98836.94
2023-04-13T12:05:47.960Z,98831.53
2023-04-13T12:08:26.008Z,98833.47
2023-04-13T12:13:39.942Z,98829.06
2023-04-13T12:16:36.896Z,98830.72
2023-04-13T12:19:13.519Z,98818.59
2023-04-13T12:21:50.162Z,98819.47
2023-04-13T12:24:18.897Z,98819.44
2023-04-13T12:29:16.532Z,98819.34
2023-04-13T12:31:45.537Z,98814.28
2023-04-13T12:34:13.136Z,98792.25
2023-04-13T12:36:40.269Z,98791.56
2023-04-13T12:39:08.148Z,98798.53
2023-04-13T12:41:35.736Z,98795.97
2023-04-13T12:44:02.907Z,98798.47
2023-04-13T12:46:30.189Z,98793.31
2023-04-13T12:48:58.963Z,98792.47
2023-04-13T12:51:26.698Z,98787.22
2023-04-13T12:53:54.031Z,98782.81
2023-04-13T12:56:22.338Z,98789.81
2023-04-13T12:58:49.679Z,98781.97
2023-04-13T13:01:16.856Z,98777.56
2023-04-13T13:03:45.988Z,98781.06
2023-04-13T13:06:13.360Z,98788.06
2023-04-13T13:08:40.685Z,98775.63
2023-04-13T13:11:11.163Z,98782.81
2023-04-13T13:13:38.402Z,98776.69
2023-04-13T13:16:05.619Z,98777.62
2023-04-13T13:18:47.003Z,98775.84
2023-04-13T13:21:17.479Z,98777.59
2023-04-13T13:23:45.682Z,98772.38
2023-04-13T13:28:43.599Z,98781.09
2023-04-13T13:31:12.792Z,98774.13
2023-04-13T13:33:39.975Z,98774.97
2023-04-13T13:36:07.753Z,98765.38
2023-04-13T13:38:36.874Z,98763.41
2023-04-13T13:41:04.302Z,98751.97
2023-04-13T13:43:31.474Z,98757.00
2023-04-13T13:45:58.940Z,98755.94
2023-04-13T13:48:27.128Z,98757.75
2023-04-13T13:50:55.945Z,98752.94
2023-04-13T13:53:23.604Z,98745.59
2023-04-13T13:55:51.090Z,98742.84
2023-04-13T13:58:18.509Z,98749.38
2023-04-13T14:00:46.219Z,98746.75
2023-04-13T14:03:14.157Z,98742.72
2023-04-13T14:05:43.137Z,98745.69
2023-04-13T14:08:10.647Z,98744.22
2023-04-13T14:10:38.171Z,98746.00
2023-04-13T14:13:05.412Z,98744.34
2023-04-13T14:15:32.772Z,98751.41
2023-04-13T14:18:09.064Z,98751.37
2023-04-13T14:20:39.081Z,98749.63
2023-04-13T14:23:07.530Z,98751.75
2023-04-13T14:25:34.957Z,98754.12
2023-04-13T14:28:02.388Z,98750.22
2023-04-13T14:30:30.255Z,98740.47
2023-04-13T14:32:57.509Z,98745.53
2023-04-13T14:35:24.835Z,98742.87
2023-04-13T14:37:52.920Z,98744.56
2023-04-13T14:40:22.844Z,98748.56
2023-04-13T14:42:53.233Z,98742.66
2023-04-13T14:45:21.241Z,98744.78
2023-04-13T14:47:48.765Z,98752.06
2023-04-13T14:50:16.407Z,98751.69
2023-04-13T14:52:44.646Z,98748.28
2023-04-13T14:55:12.059Z,98756.56
2023-04-13T14:57:39.402Z,98751.81
2023-04-13T15:00:21.669Z,98750.56
2023-04-13T15:02:49.886Z,98757.03
2023-04-13T15:05:17.717Z,98753.97
2023-04-13T15:07:46.233Z,98753.91
2023-04-13T15:10:14.377Z,98755.25
2023-04-13T15:12:41.998Z,98756.88
2023-04-13T15:15:09.862Z,98758.69
2023-04-13T15:17:37.170Z,98760.13
2023-04-13T15:20:07.390Z,98760.53
2023-04-13T15:22:36.179Z,98758.16
2023-04-13T15:25:03.697Z,98761.56
2023-04-13T15:27:31.167Z,98765.19
2023-04-13T15:30:00.011Z,98759.28
2023-04-13T15:32:28.031Z,98767.22
2023-04-13T15:34:56.414Z,98768.56
2023-04-13T15:37:23.850Z,98766.66
2023-04-13T15:39:51.029Z,98770.94
2023-04-13T15:42:21.171Z,98763.75
2023-04-13T15:44:48.602Z,98765.56
2023-04-13T15:47:16.021Z,98761.19
2023-04-13T15:49:43.486Z,98759.69
2023-04-13T15:52:10.769Z,98763.00
2023-04-13T15:54:37.922Z,98763.00
2023-04-13T15:57:06.794Z,98762.72
2023-04-13T15:59:34.872Z,98757.81
2023-04-13T16:02:02.400Z,98762.03
2023-04-13T16:04:30.266Z,98745.72
2023-04-13T16:07:11.924Z,98752.72
2023-04-13T16:09:42.523Z,98754.91
2023-04-13T16:12:11.086Z,98756.63
2023-04-13T16:14:47.369Z,98758.06
2023-04-13T16:17:15.204Z,98762.69
2023-04-13T16:19:46.686Z,98762.72
2023-04-13T16:22:14.447Z,98763.56
2023-04-13T16:24:42.077Z,98754.56
2023-04-13T16:27:10.159Z,98763.00
2023-04-13T16:29:37.678Z,98758.63
2023-04-13T16:32:05.061Z,98760.25
2023-04-13T16:34:32.322Z,98760.78
2023-04-13T16:36:59.858Z,98757.63
2023-04-13T16:39:27.495Z,98756.63
2023-04-13T16:41:54.671Z,98740.53
2023-04-13T16:44:23.430Z,98751.59
2023-04-13T16:46:50.803Z,98747.97
2023-04-13T16:49:17.981Z,98748.66
2023-04-13T16:51:45.649Z,98757.69
2023-04-13T16:54:14.053Z,98755.09
2023-04-13T16:56:42.686Z,98757.41
2023-04-13T16:59:10.416Z,98759.66
2023-04-13T17:01:39.707Z,98751.63
2023-04-13T17:04:07.592Z,98755.12
2023-04-13T17:06:36.575Z,98754.34
2023-04-13T17:09:04.162Z,98762.75
2023-04-13T17:11:31.600Z,98774.63
2023-04-13T17:13:59.110Z,98775.94
2023-04-13T17:16:29.280Z,98775.63
2023-04-13T17:18:56.837Z,98785.25
2023-04-13T17:21:24.637Z,98775.53
2023-04-13T17:23:52.437Z,98777.75
2023-04-13T17:26:20.069Z,98778.06
2023-04-13T17:28:47.918Z,98771.72
2023-04-13T17:31:15.208Z,98767.66
2023-04-13T17:33:44.917Z,98758.81
2023-04-13T17:36:12.524Z,98768.34
2023-04-13T17:38:41.275Z,98769.50
2023-04-13T17:41:09.414Z,98777.31
2023-04-13T17:43:38.419Z,98782.84
2023-04-13T17:46:08.724Z,98779.59
2023-04-13T17:48:36.437Z,98783.50
2023-04-13T17:51:06.287Z,98781.13
2023-04-13T17:53:33.554Z,98792.44
2023-04-13T17:56:01.264Z,98794.31
2023-04-13T17:58:29.031Z,98796.87
2023-04-13T18:00:56.913Z,98800.41
2023-04-13T18:03:24.865Z,98812.03
2023-04-13T18:05:53.172Z,98813.75
2023-04-13T18:08:20.520Z,98806.06
2023-04-13T18:10:50.058Z,98806.25
2023-04-13T18:13:17.808Z,98808.34
2023-04-13T18:15:50.220Z,98811.59
2023-04-13T18:18:18.230Z,98815.53
2023-04-13T18:20:51.016Z,98810.38
2023-04-13T18:23:20.113Z,98810.63
2023-04-13T18:25:49.529Z,98807.03
2023-04-13T18:28:18.223Z,98803.41
2023-04-13T18:30:46.528Z,98794.06
2023-04-13T18:33:13.857Z,98806.47
2023-04-13T18:35:48.621Z,98806.91
2023-04-13T18:38:16.737Z,98803.41
2023-04-13T18:40:46.294Z,98803.34
2023-04-13T18:43:14.540Z,98802.03
2023-04-13T18:45:46.493Z,98802.25
2023-04-13T18:48:14.273Z,98800.91
2023-04-13T18:50:41.925Z,98796.75
2023-04-13T18:53:09.893Z,98801.16
2023-04-13T18:55:37.718Z,98809.47
2023-04-13T18:58:06.575Z,98811.06
2023-04-13T19:00:34.738Z,98804.44
2023-04-13T19:03:03.005Z,98810.25
2023-04-13T19:05:33.850Z,98807.94
2023-04-13T19:08:05.156Z,98804.34
2023-04-13T19:10:34.701Z,98811.00
2023-04-13T19:13:02.648Z,98800.06
2023-04-13T19:15:34.137Z,98800.50
2023-04-13T19:18:04.683Z,98793.09
2023-04-13T19:20:32.155Z,98794.53
2023-04-13T19:22:59.728Z,98795.06
2023-04-13T19:25:29.088Z,98794.00
2023-04-13T19:27:57.714Z,98803.16
2023-04-13T19:30:25.645Z,98789.59
2023-04-13T19:32:55.309Z,98791.31
2023-04-13T19:35:24.947Z,98787.69
2023-04-13T19:37:53.385Z,98779.44
2023-04-13T19:40:23.538Z,98771.53
2023-04-13T19:42:51.351Z,98771.44
2023-04-13T19:45:19.059Z,98768.25
2023-04-13T19:47:47.908Z,98752.31
2023-04-13T19:50:16.002Z,98756.38
2023-04-13T19:52:47.712Z,98749.19
2023-04-13T19:55:17.343Z,98752.97
2023-04-13T19:57:46.494Z,98756.53
2023-04-13T20:00:24.446Z,98750.41
2023-04-13T20:03:03.702Z,98743.84
2023-04-13T20:05:33.652Z,98746.69
2023-04-13T20:08:01.696Z,98741.44
2023-04-13T20:10:29.064Z,98748.91
2023-04-13T20:12:56.824Z,98746.31
2023-04-13T20:15:24.825Z,98746.38
2023-04-13T20:17:53.358Z,98738.59
2023-04-13T20:20:23.894Z,98744.06
2023-04-13T20:22:52.006Z,98727.16
2023-04-13T20:25:19.913Z,98722.72
2023-04-13T20:27:49.281Z,98726.16
2023-04-13T20:30:17.343Z,98716.47
2023-04-13T20:32:44.595Z,98719.72
2023-04-13T20:35:12.011Z,98709.03
2023-04-13T20:37:40.438Z,98700.81
2023-04-13T20:40:10.692Z,98698.59
2023-04-13T20:42:42.189Z,98700.19
2023-04-13T20:45:11.002Z,98696.47
2023-04-13T20:47:42.584Z,98703.16
2023-04-13T20:50:10.669Z,98692.09
2023-04-13T20:52:41.834Z,98687.31
2023-04-13T20:55:11.933Z,98681.13
2023-04-13T20:57:42.052Z,98689.41
2023-04-13T21:00:16.201Z,98687.97
2023-04-13T21:02:43.843Z,98679.84
2023-04-13T21:05:12.467Z,98688.09
2023-04-13T21:07:40.358Z,98682.34
2023-04-13T21:13:16.107Z,98679.91
2023-04-13T21:15:43.450Z,98683.19
2023-04-13T21:18:11.024Z,98682.81
2023-04-13T21:23:37.320Z,98679.34
2023-04-13T21:26:05.320Z,98671.50
2023-04-13T21:28:32.476Z,98676.44
2023-04-13T21:30:59.625Z,98684.84
2023-04-13T21:33:27.072Z,98688.66
2023-04-13T21:35:54.245Z,98706.09
2023-04-13T21:38:21.428Z,98715.31
2023-04-13T21:40:48.834Z,98719.72
2023-04-13T21:43:16.908Z,98709.09
2023-04-13T21:45:44.132Z,98693.34
2023-04-13T21:48:11.570Z,98674.87
2023-04-13T21:50:38.715Z,98652.84
2023-04-13T21:53:05.945Z,98650.53
2023-04-13T21:55:33.368Z,98648.06
2023-04-13T21:58:00.494Z,98638.44
2023-04-13T22:00:27.607Z,98635.13
2023-04-13T22:02:55.488Z,98635.53
2023-04-13T22:05:23.039Z,98633.50
2023-04-13T22:07:50.197Z,98631.91
2023-04-13T22:10:17.395Z,98634.19
2023-04-13T22:12:44.824Z,98640.97
2023-04-13T22:15:11.962Z,98632.56
2023-04-13T22:17:39.158Z,98627.94
2023-04-13T22:20:06.941Z,98633.12
2023-04-13T22:22:34.096Z,98632.25
2023-04-13T22:25:01.264Z,98633.22
2023-04-13T22:27:28.724Z,98631.09
2023-04-13T22:29:55.966Z,98621.25
2023-04-13T22:32:23.163Z,98621.56
2023-04-13T22:34:50.783Z,98614.75
2023-04-13T22:37:17.983Z,98618.41
2023-04-13T22:39:45.176Z,98617.00
2023-04-13T22:42:12.665Z,98609.66
2023-04-13T22:44:39.874Z,98614.81
2023-04-13T22:47:07.060Z,98608.09
2023-04-13T22:49:34.538Z,98601.53
2023-04-13T22:52:01.709Z,98595.94
2023-04-13T22:54:28.871Z,98586.41
2023-04-13T22:56:56.325Z,98576.28
2023-04-13T22:59:23.691Z,98581.00
2023-04-13T23:01:51.049Z,98571.94
2023-04-13T23:04:18.693Z,98571.78
2023-04-13T23:06:46.625Z,98558.25
2023-04-13T23:09:13.783Z,98565.22
2023-04-13T23:11:41.183Z,98564.72
2023-04-13T23:14:08.338Z,98561.03
2023-04-13T23:16:35.612Z,98552.53
2023-04-13T23:19:03.298Z,98550.97
2023-04-13T23:21:31.248Z,98543.91
2023-04-13T23:23:58.446Z,98537.53
2023-04-13T23:26:25.942Z,98525.81
2023-04-13T23:28:53.135Z,98516.03
2023-04-13T23:31:20.371Z,98512.69
2023-04-13T23:33:47.822Z,98494.47
2023-04-13T23:36:15.029Z,98504.41
2023-04-13T23:38:42.144Z,98507.50
2023-04-13T23:41:09.610Z,98510.28
2023-04-13T23:43:37.038Z,98513.72
2023-04-13T23:46:04.463Z,98502.72
2023-04-13T23:48:31.970Z,98504.34
2023-04-13T23:50:59.158Z,98516.19
2023-04-13T23:53:26.306Z,98508.28
2023-04-13T23:55:53.742Z,98500.16
2023-04-13T23:58:20.927Z,98478.50
